Time;durP1;ratioP1;P1;durP2;ratioP2;P2;SDS_P1;SDS_P2;PMS_P1;PMS_P2;Temp;Humidity;BMP_temperature;BMP_pressure;BME280_temperature;BME280_humidity;BME280_pressure;Samples;Min_cycle;Max_cycle;Signal;HPM_P1;HPM_P2
2022/06/03 04:03:02;;;;;;;6.15;5.80;;;9.10;99.90;;;;;;5011787;23;20278;-70
2022/06/03 04:06:02;;;;;;;7.38;6.72;;;9.20;99.90;;;;;;4954822;28;20212;-68
2022/06/03 04:09:04;;;;;;;5.65;5.40;;;9.30;99.90;;;;;;4965044;28;20236;-70
2022/06/03 04:11:56;;;;;;;6.50;6.00;;;9.30;99.90;;;;;;4958693;28;20229;-69
2022/06/03 04:15:02;;;;;;;6.18;5.78;;;9.30;99.90;;;;;;4968347;23;20647;-69
2022/06/03 04:18:08;;;;;;;6.53;6.13;;;9.30;99.90;;;;;;4972697;28;20711;-70
2022/06/03 04:21:17;;;;;;;7.18;6.78;;;9.40;99.90;;;;;;4960725;28;20212;-69
2022/06/03 04:24:29;;;;;;;6.55;5.97;;;9.90;99.90;;;;;;4979449;28;20203;-70
2022/06/03 04:27:41;;;;;;;5.30;4.90;;;11.00;99.90;;;;;;4948113;29;20212;-70
2022/06/03 04:30:32;;;;;;;4.57;4.37;;;12.30;99.90;;;;;;4948559;29;20232;-70
2022/06/03 04:33:27;;;;;;;4.73;4.13;;;13.40;99.90;;;;;;4954671;28;20488;-70
2022/06/03 04:36:36;;;;;;;4.20;4.10;;;14.10;99.90;;;;;;4944453;29;20504;-70
2022/06/03 04:39:49;;;;;;;3.73;3.63;;;14.70;99.90;;;;;;4897601;29;20850;-69
2022/06/03 04:43:02;;;;;;;4.00;3.70;;;15.20;99.90;;;;;;4945045;29;20492;-70
2022/06/03 04:46:01;;;;;;;3.83;3.63;;;15.80;99.90;;;;;;4951094;29;20649;-70
2022/06/03 04:49:13;;;;;;;3.80;3.60;;;16.20;99.90;;;;;;4934067;28;20477;-70
2022/06/03 04:52:25;;;;;;;3.80;3.70;;;16.70;99.90;;;;;;4913094;29;20462;-71
2022/06/03 04:55:26;;;;;;;3.47;3.37;;;17.40;99.90;;;;;;4909784;28;20488;-70
2022/06/03 04:58:44;;;;;;;3.87;3.77;;;17.60;99.90;;;;;;4943546;29;20465;-70
2022/06/03 05:01:48;;;;;;;4.57;4.30;;;18.10;99.90;;;;;;4951642;29;20476;-70
2022/06/03 05:04:47;;;;;;;4.13;3.93;;;18.50;99.90;;;;;;4952405;28;20499;-70
2022/06/03 05:07:51;;;;;;;3.67;3.30;;;19.00;99.90;;;;;;4959039;28;20465;-70
2022/06/03 05:11:08;;;;;;;3.20;3.20;;;19.00;99.90;;;;;;4960013;28;20485;-71
2022/06/03 05:14:17;;;;;;;3.87;3.57;;;19.00;99.90;;;;;;4966473;29;20482;-70
2022/06/03 05:17:20;;;;;;;4.30;3.97;;;19.10;99.90;;;;;;4943888;29;20453;-70
2022/06/03 05:20:19;;;;;;;3.77;3.60;;;19.50;99.90;;;;;;4946599;29;20479;-70
2022/06/03 05:23:16;;;;;;;4.67;4.27;;;19.60;99.90;;;;;;4947185;28;20487;-70
2022/06/03 05:26:27;;;;;;;3.87;3.70;;;20.00;99.90;;;;;;4951019;29;20497;-71
2022/06/03 05:29:12;;;;;;;3.47;3.37;;;20.10;99.90;;;;;;4945150;29;20472;-70
2022/06/03 05:32:27;;;;;;;3.90;3.70;;;20.50;99.90;;;;;;4942483;29;20999;-71
2022/06/03 05:35:22;;;;;;;4.40;4.00;;;20.70;99.90;;;;;;4946947;29;20492;-70
2022/06/03 05:38:28;;;;;;;4.30;3.93;;;21.00;99.90;;;;;;4945158;29;20468;-71
2022/06/03 05:44:15;;;;;;;3.40;3.30;;;21.50;99.90;;;;;;4945240;29;20834;-70
2022/06/03 05:46:51;;;;;;;3.70;3.47;;;22.00;99.90;;;;;;4934976;29;20870;-71
2022/06/03 05:49:34;;;;;;;4.20;3.90;;;22.20;99.90;;;;;;4950901;28;20497;-69
2022/06/03 05:52:21;;;;;;;4.20;3.90;;;22.20;99.90;;;;;;4946358;28;20860;-70
2022/06/03 05:55:00;;;;;;;3.80;3.50;;;22.00;99.90;;;;;;4941761;29;20483;-70
2022/06/03 05:57:36;;;;;;;4.37;4.07;;;22.20;99.90;;;;;;4949527;29;20474;-70
2022/06/03 06:00:39;;;;;;;3.50;3.20;;;22.70;99.90;;;;;;4946607;29;20458;-71
2022/06/03 06:03:20;;;;;;;2.93;2.73;;;22.70;99.90;;;;;;4937618;29;20830;-70
2022/06/03 06:05:56;;;;;;;2.10;2.00;;;22.60;99.90;;;;;;4935399;29;20825;-70
2022/06/03 06:08:30;;;;;;;2.30;2.20;;;22.30;99.90;;;;;;4956665;28;20483;-70
2022/06/03 06:11:06;;;;;;;2.67;2.40;;;22.50;99.90;;;;;;4950412;28;20498;-70
2022/06/03 06:13:58;;;;;;;2.50;2.33;;;22.60;99.90;;;;;;4951782;28;20476;-69
2022/06/03 06:16:33;;;;;;;2.67;1.53;;;23.20;99.90;;;;;;4951911;28;20922;-69
2022/06/03 06:19:05;;;;;;;3.10;2.90;;;23.30;99.90;;;;;;4952432;28;20513;-70
2022/06/03 06:22:05;;;;;;;2.03;1.97;;;23.70;99.90;;;;;;4948585;29;20528;-71
2022/06/03 06:24:54;;;;;;;1.77;1.67;;;23.90;99.60;;;;;;4934380;29;20977;-69
2022/06/03 06:27:57;;;;;;;2.80;2.30;;;24.30;98.60;;;;;;4942100;28;20471;-69
2022/06/03 06:30:59;;;;;;;2.70;2.00;;;24.40;98.50;;;;;;4951223;28;21188;-69
2022/06/03 06:33:41;;;;;;;1.87;1.77;;;24.50;97.70;;;;;;4949158;28;20856;-69
2022/06/03 06:36:40;;;;;;;1.80;1.70;;;24.10;98.50;;;;;;4946482;28;20490;-68
2022/06/03 06:39:18;;;;;;;3.60;2.03;;;24.10;96.70;;;;;;4946872;29;20466;-71
2022/06/03 06:41:56;;;;;;;2.30;2.00;;;24.20;97.50;;;;;;4942772;29;20538;-70
2022/06/03 06:44:36;;;;;;;1.77;1.67;;;24.40;96.40;;;;;;4944348;28;20480;-68
2022/06/03 06:47:16;;;;;;;2.80;2.13;;;24.20;96.70;;;;;;4947006;29;20499;-69
2022/06/03 06:49:56;;;;;;;1.30;1.30;;;24.30;96.40;;;;;;4939759;28;20503;-68
2022/06/03 06:52:42;;;;;;;2.93;2.03;;;25.00;95.30;;;;;;4948056;29;20479;-70
2022/06/03 06:55:17;;;;;;;2.67;2.57;;;24.40;95.50;;;;;;4945914;29;20494;-68
2022/06/03 06:57:47;;;;;;;1.93;1.93;;;24.40;95.60;;;;;;4944908;28;20463;-68
2022/06/03 07:00:22;;;;;;;2.40;2.20;;;24.50;95.60;;;;;;4949317;28;20496;-69
2022/06/03 07:02:54;;;;;;;2.30;2.20;;;24.50;95.30;;;;;;4933278;29;20456;-69
2022/06/03 07:05:28;;;;;;;2.63;2.33;;;24.80;94.60;;;;;;4946582;29;20514;-69
2022/06/03 07:08:01;;;;;;;2.10;2.00;;;25.10;95.10;;;;;;4937218;29;20495;-69
2022/06/03 07:10:31;;;;;;;2.77;2.57;;;25.20;94.30;;;;;;4942132;29;20499;-69
2022/06/03 07:13:05;;;;;;;4.20;2.20;;;25.20;94.20;;;;;;4950649;29;20487;-69
2022/06/03 07:15:50;;;;;;;2.10;2.00;;;25.30;94.00;;;;;;4951962;28;20483;-69
2022/06/03 07:21:17;;;;;;;2.20;2.10;;;24.90;93.40;;;;;;4949025;29;20599;-69
2022/06/03 07:23:49;;;;;;;2.03;1.93;;;24.90;94.40;;;;;;4951889;28;20479;-70
2022/06/03 07:26:23;;;;;;;1.70;1.60;;;25.10;93.40;;;;;;4952270;29;20471;-70
2022/06/03 07:28:57;;;;;;;1.70;1.70;;;25.30;93.70;;;;;;4950841;28;20826;-70
2022/06/03 07:31:31;;;;;;;1.63;1.63;;;25.40;93.20;;;;;;4936133;29;20833;-69
2022/06/03 07:34:03;;;;;;;2.50;2.30;;;25.90;92.30;;;;;;4950075;28;20579;-70
2022/06/03 07:36:44;;;;;;;2.03;1.63;;;26.20;91.60;;;;;;4946923;29;20472;-69
2022/06/03 07:39:48;;;;;;;1.60;1.60;;;26.50;90.50;;;;;;4949145;28;20485;-70
2022/06/03 07:42:25;;;;;;;1.40;1.37;;;26.00;90.50;;;;;;4887170;29;20475;-69
2022/06/03 07:45:02;;;;;;;1.47;1.37;;;25.90;90.70;;;;;;4940269;29;20492;-70
2022/06/03 07:47:30;;;;;;;1.93;1.70;;;26.30;90.20;;;;;;4949207;29;20482;-69
2022/06/03 07:50:00;;;;;;;1.70;1.50;;;26.50;87.20;;;;;;4946053;28;20556;-70
2022/06/03 07:52:34;;;;;;;2.23;2.03;;;26.50;88.50;;;;;;4939786;29;20465;-70
2022/06/03 07:55:08;;;;;;;1.70;1.60;;;26.60;86.70;;;;;;4946808;28;20491;-69
2022/06/03 07:57:34;;;;;;;1.40;1.30;;;26.60;88.20;;;;;;4949435;28;20487;-70
2022/06/03 08:00:04;;;;;;;1.20;1.17;;;26.30;86.70;;;;;;4937863;28;20470;-69
2022/06/03 08:02:31;;;;;;;2.03;1.80;;;25.20;86.50;;;;;;4951232;28;20472;-69
2022/06/03 08:05:10;;;;;;;1.40;1.30;;;24.90;89.20;;;;;;4946671;28;20480;-69
2022/06/03 08:13:14;;;;;;;1.77;1.77;;;25.20;89.80;;;;;;4953320;28;20939;-69
2022/06/03 08:15:46;;;;;;;1.40;1.40;;;25.30;90.40;;;;;;4955232;28;20496;-68
2022/06/03 08:18:17;;;;;;;1.70;1.70;;;25.40;89.10;;;;;;4954868;28;20530;-69
2022/06/03 08:20:51;;;;;;;1.63;1.57;;;25.40;88.90;;;;;;4936024;29;20464;-69
2022/06/03 08:23:19;;;;;;;1.93;1.93;;;25.50;90.00;;;;;;4950656;29;20476;-68
2022/06/03 08:25:50;;;;;;;2.10;1.63;;;24.80;89.50;;;;;;4947513;29;20483;-68
2022/06/03 08:28:21;;;;;;;1.93;1.83;;;24.60;91.20;;;;;;4954769;28;20502;-69
2022/06/03 08:30:51;;;;;;;1.63;1.63;;;24.50;91.00;;;;;;4947300;29;20484;-69
2022/06/03 08:33:26;;;;;;;1.90;1.80;;;24.80;90.80;;;;;;4954998;28;20480;-70
2022/06/03 08:35:54;;;;;;;2.17;1.73;;;24.70;90.50;;;;;;4940437;28;20499;-70
2022/06/03 08:38:28;;;;;;;1.70;1.60;;;24.60;90.60;;;;;;4955333;28;20485;-70
2022/06/03 08:41:06;;;;;;;1.60;1.60;;;24.80;91.10;;;;;;4950413;28;20474;-70
2022/06/03 08:43:39;;;;;;;2.13;2.07;;;24.80;90.00;;;;;;4939118;28;20517;-70
2022/06/03 08:46:18;;;;;;;2.20;2.20;;;24.50;90.60;;;;;;4953482;28;20584;-70
2022/06/03 08:48:49;;;;;;;2.60;2.40;;;24.40;90.50;;;;;;4951487;28;20469;-69
2022/06/03 08:51:22;;;;;;;1.90;1.90;;;24.40;88.80;;;;;;4954035;28;20488;-70
2022/06/03 08:53:56;;;;;;;2.20;2.20;;;24.00;90.20;;;;;;4953969;28;20525;-70
2022/06/03 08:56:26;;;;;;;2.20;2.10;;;23.50;91.00;;;;;;4954617;28;20474;-70
2022/06/03 08:59:01;;;;;;;2.03;2.00;;;23.40;92.00;;;;;;4954640;29;20931;-70
2022/06/03 09:01:35;;;;;;;2.00;1.90;;;23.40;92.10;;;;;;4949054;28;20951;-70
2022/06/03 09:04:14;;;;;;;2.13;2.10;;;23.40;91.30;;;;;;4953398;28;20467;-70
2022/06/03 09:06:48;;;;;;;2.10;2.00;;;23.20;91.70;;;;;;4952865;28;20771;-70
2022/06/03 09:09:24;;;;;;;2.00;1.90;;;23.40;91.50;;;;;;4950356;28;20457;-70
2022/06/03 09:11:58;;;;;;;2.03;2.00;;;23.50;90.90;;;;;;4946995;29;20616;-70
2022/06/03 09:14:27;;;;;;;2.13;2.13;;;23.30;89.70;;;;;;4953298;28;21033;-70
2022/06/03 09:16:57;;;;;;;2.03;1.93;;;23.00;90.50;;;;;;4953736;28;20593;-70
2022/06/03 09:19:28;;;;;;;2.20;2.10;;;22.80;90.60;;;;;;4947010;28;20470;-70
2022/06/03 09:22:00;;;;;;;1.83;1.83;;;22.70;90.30;;;;;;4941540;28;20470;-71
2022/06/03 09:24:33;;;;;;;2.23;2.23;;;22.60;90.50;;;;;;4950316;28;20552;-71
2022/06/03 09:27:03;;;;;;;2.40;2.40;;;22.60;90.60;;;;;;4952135;28;20839;-70
2022/06/03 09:29:30;;;;;;;2.50;2.40;;;22.60;90.50;;;;;;4953023;28;20491;-70
2022/06/03 09:32:01;;;;;;;2.40;2.30;;;22.20;91.80;;;;;;4940859;28;21029;-70
2022/06/03 09:34:40;;;;;;;2.37;2.23;;;21.90;92.60;;;;;;4943093;28;20492;-71
2022/06/03 09:37:11;;;;;;;2.10;2.00;;;21.60;92.90;;;;;;4953688;28;20827;-71
2022/06/03 09:39:38;;;;;;;2.30;2.07;;;21.40;92.80;;;;;;4950754;28;20472;-71
2022/06/03 09:42:05;;;;;;;2.37;2.27;;;21.20;93.00;;;;;;4946667;28;20469;-70
2022/06/03 09:44:33;;;;;;;2.40;2.40;;;21.00;93.20;;;;;;4953863;28;21005;-70
2022/06/03 09:47:02;;;;;;;2.17;2.13;;;20.90;93.50;;;;;;4954249;28;20468;-70
2022/06/03 09:49:31;;;;;;;2.07;1.90;;;20.90;93.70;;;;;;4952285;29;20464;-70
2022/06/03 09:51:59;;;;;;;2.20;2.17;;;20.90;93.90;;;;;;4952258;28;20827;-70
2022/06/03 09:54:30;;;;;;;2.20;2.10;;;20.90;93.80;;;;;;4952776;28;20493;-70
2022/06/03 09:57:01;;;;;;;2.97;2.73;;;21.00;93.70;;;;;;4946025;28;20539;-70
2022/06/03 09:59:29;;;;;;;2.00;1.90;;;20.90;93.80;;;;;;4949752;28;20465;-70
2022/06/03 10:01:56;;;;;;;2.10;2.10;;;21.00;94.00;;;;;;4947092;28;20470;-70
2022/06/03 10:04:24;;;;;;;2.30;2.20;;;21.20;93.70;;;;;;4950659;29;20492;-70
2022/06/03 10:06:51;;;;;;;2.50;2.30;;;21.20;93.30;;;;;;4952718;28;20776;-69
2022/06/03 10:17:45;;;;;;;1.90;1.80;;;20.90;94.10;;;;;;4950870;28;20543;-70
2022/06/03 10:20:12;;;;;;;3.23;2.03;;;21.00;92.40;;;;;;4950796;28;20549;-69
2022/06/03 10:22:38;;;;;;;2.03;1.93;;;21.00;91.90;;;;;;4952957;28;20461;-70
2022/06/03 10:25:07;;;;;;;2.30;2.30;;;21.00;91.80;;;;;;4952231;28;20489;-70
2022/06/03 10:27:35;;;;;;;2.30;2.30;;;21.00;92.50;;;;;;4952287;28;20468;-70
2022/06/03 10:30:05;;;;;;;3.00;2.90;;;21.10;92.10;;;;;;4949040;28;20487;-70
2022/06/03 10:32:32;;;;;;;1.90;1.90;;;21.10;91.50;;;;;;4951952;28;20489;-71
2022/06/03 10:35:11;;;;;;;2.30;2.20;;;21.00;91.80;;;;;;4946990;28;21037;-69
2022/06/03 10:37:46;;;;;;;2.50;2.30;;;21.10;93.30;;;;;;4952112;29;20472;-69
2022/06/03 10:40:14;;;;;;;2.13;2.13;;;21.10;93.80;;;;;;4947687;28;20523;-68
2022/06/03 10:42:46;;;;;;;2.33;2.33;;;21.20;93.10;;;;;;4950646;28;20458;-68
2022/06/03 10:45:13;;;;;;;2.33;2.23;;;21.40;93.30;;;;;;4948790;28;20496;-69
2022/06/03 10:47:43;;;;;;;2.30;2.30;;;21.70;93.10;;;;;;4944667;28;20475;-69
2022/06/03 10:50:13;;;;;;;2.17;2.10;;;21.90;93.40;;;;;;4948095;29;20473;-70
2022/06/03 11:01:18;;;;;;;2.97;2.80;;;21.70;94.20;;;;;;4948016;28;20957;-69
2022/06/03 11:03:50;;;;;;;2.90;2.70;;;21.70;94.10;;;;;;4939662;28;20476;-69
2022/06/03 11:06:18;;;;;;;2.00;1.90;;;21.80;93.80;;;;;;4942078;28;20492;-70
2022/06/03 11:08:50;;;;;;;2.20;2.10;;;22.00;92.70;;;;;;4949035;28;20551;-70
2022/06/03 11:11:36;;;;;;;2.27;2.17;;;22.20;92.80;;;;;;4949656;29;20493;-70
2022/06/03 11:14:32;;;;;;;2.33;2.00;;;22.20;92.20;;;;;;4941739;29;20476;-69
2022/06/03 11:17:02;;;;;;;2.80;2.70;;;21.90;92.30;;;;;;4948167;28;20483;-70
2022/06/03 11:19:32;;;;;;;2.03;2.03;;;21.70;92.50;;;;;;4945123;28;20563;-69
2022/06/03 11:22:16;;;;;;;2.20;2.10;;;21.70;93.20;;;;;;4949778;28;20483;-70
2022/06/03 11:24:47;;;;;;;2.30;2.23;;;21.70;93.00;;;;;;4954036;29;20575;-69
2022/06/03 11:27:15;;;;;;;2.87;2.63;;;21.80;93.20;;;;;;4953006;28;20525;-70
2022/06/03 11:29:46;;;;;;;2.63;2.53;;;21.70;92.60;;;;;;4952623;28;20469;-71
2022/06/03 11:32:16;;;;;;;2.70;2.60;;;21.80;93.60;;;;;;4954756;28;20838;-71
2022/06/03 11:34:48;;;;;;;2.50;2.40;;;21.90;92.20;;;;;;4955254;28;20489;-71
2022/06/03 11:37:21;;;;;;;2.53;2.43;;;22.10;91.20;;;;;;4952792;28;20477;-71
2022/06/03 11:39:53;;;;;;;2.50;2.40;;;22.00;91.50;;;;;;4953697;28;20494;-71
2022/06/03 11:42:28;;;;;;;2.30;2.20;;;21.90;91.40;;;;;;4943913;28;20462;-70
2022/06/03 11:45:08;;;;;;;2.20;2.20;;;22.00;92.00;;;;;;4934656;29;20489;-70
2022/06/03 11:47:41;;;;;;;2.40;2.30;;;22.00;92.90;;;;;;4953076;28;20480;-71
2022/06/03 11:50:10;;;;;;;2.40;2.10;;;22.00;92.90;;;;;;4946427;28;20557;-71
2022/06/03 11:52:38;;;;;;;2.50;2.40;;;21.80;93.40;;;;;;4958324;28;20547;-71
2022/06/03 11:55:05;;;;;;;2.20;2.20;;;21.60;94.20;;;;;;4956710;28;20484;-71
2022/06/03 11:57:31;;;;;;;2.20;2.20;;;21.70;94.40;;;;;;4953717;28;20476;-70
2022/06/03 12:00:04;;;;;;;2.17;2.07;;;21.80;93.50;;;;;;4953030;28;20592;-71
2022/06/03 12:02:39;;;;;;;2.07;2.00;;;22.00;94.00;;;;;;4957120;28;20482;-70
2022/06/03 12:05:10;;;;;;;2.27;2.27;;;22.00;93.70;;;;;;4956542;28;20487;-70
2022/06/03 12:07:45;;;;;;;2.30;2.30;;;21.80;93.70;;;;;;4949316;29;20472;-70
2022/06/03 12:10:21;;;;;;;2.30;2.20;;;22.00;93.80;;;;;;4951867;29;20593;-68
2022/06/03 12:15:43;;;;;;;2.43;2.33;;;22.50;93.50;;;;;;4953851;28;20487;-70
2022/06/03 12:18:32;;;;;;;2.87;2.30;;;22.60;92.80;;;;;;4944088;29;20460;-70
2022/06/03 12:21:00;;;;;;;2.20;2.10;;;22.50;93.00;;;;;;4953422;28;20468;-70
2022/06/03 12:23:50;;;;;;;2.20;2.20;;;22.50;92.40;;;;;;4959109;28;20468;-70
2022/06/03 12:26:23;;;;;;;2.17;2.17;;;22.70;92.10;;;;;;4957221;28;20485;-70
2022/06/03 12:28:52;;;;;;;2.23;2.23;;;22.90;91.00;;;;;;4958498;28;20579;-71
2022/06/03 12:31:35;;;;;;;2.90;2.80;;;23.00;90.40;;;;;;4956412;29;20568;-70
2022/06/03 12:34:11;;;;;;;2.30;2.30;;;22.90;89.40;;;;;;4939977;29;20476;-71
2022/06/03 12:36:41;;;;;;;2.27;2.17;;;22.80;90.30;;;;;;4959433;28;20465;-71
2022/06/03 12:39:20;;;;;;;2.70;2.53;;;22.80;90.90;;;;;;4960915;28;20472;-71
2022/06/03 12:42:13;;;;;;;2.20;2.10;;;22.90;91.00;;;;;;4961492;28;20559;-73
2022/06/03 12:44:47;;;;;;;2.20;2.20;;;23.10;91.00;;;;;;4958244;28;20480;-73
2022/06/03 12:47:46;;;;;;;2.33;2.23;;;23.20;91.20;;;;;;4954727;28;20465;-73
2022/06/03 12:50:35;;;;;;;2.13;2.13;;;23.10;90.30;;;;;;4945678;29;20462;-73
2022/06/03 12:53:24;;;;;;;1.80;1.80;;;22.90;91.20;;;;;;4954586;29;20906;-70
2022/06/03 12:55:57;;;;;;;2.40;2.40;;;22.60;90.50;;;;;;4956404;28;20518;-70
2022/06/03 12:58:45;;;;;;;2.90;2.80;;;22.40;91.80;;;;;;4955914;28;20469;-71
2022/06/03 13:01:13;;;;;;;2.70;2.50;;;22.40;91.70;;;;;;4955903;28;20935;-71
2022/06/03 13:03:43;;;;;;;2.20;2.10;;;22.60;92.30;;;;;;4955816;28;20468;-71
2022/06/03 13:06:10;;;;;;;2.60;2.50;;;22.70;91.60;;;;;;4955507;28;20484;-72
2022/06/03 13:09:34;;;;;;;2.40;2.30;;;22.60;91.10;;;;;;4955330;28;20464;-71
2022/06/03 13:11:44;;;;;;;2.30;2.20;;;22.50;91.70;;;;;;4951029;29;20475;-70
2022/06/03 13:14:26;;;;;;;2.47;2.37;;;22.60;91.90;;;;;;4949566;28;20477;-71
2022/06/03 13:16:53;;;;;;;2.27;2.27;;;22.80;92.00;;;;;;4953735;29;20465;-71
2022/06/03 13:19:59;;;;;;;2.70;2.60;;;22.90;91.40;;;;;;4947339;28;20959;-71
2022/06/03 13:22:51;;;;;;;3.10;2.60;;;23.00;91.30;;;;;;4954567;28;20469;-71
2022/06/03 13:25:32;;;;;;;2.53;2.50;;;23.00;91.20;;;;;;4956612;28;20492;-72
2022/06/03 13:28:34;;;;;;;2.30;2.30;;;23.10;91.60;;;;;;4953206;28;20477;-72
2022/06/03 13:31:22;;;;;;;2.43;2.23;;;23.00;90.50;;;;;;4950307;28;20457;-71
2022/06/03 13:34:14;;;;;;;2.50;2.40;;;22.80;91.60;;;;;;4949744;28;20469;-71
2022/06/03 13:36:47;;;;;;;2.43;2.33;;;22.60;91.60;;;;;;4939401;29;20488;-70
2022/06/03 13:39:35;;;;;;;2.47;2.37;;;22.40;91.40;;;;;;4954173;28;20475;-70
2022/06/03 13:45:13;;;;;;;1.90;1.90;;;22.10;92.10;;;;;;4952923;29;20937;-71
2022/06/03 13:47:50;;;;;;;2.63;2.53;;;22.20;92.20;;;;;;4952399;28;20475;-72
2022/06/03 13:50:31;;;;;;;2.20;2.10;;;22.40;91.50;;;;;;4950386;28;20473;-72
2022/06/03 13:53:02;;;;;;;2.90;2.70;;;22.50;91.10;;;;;;4948556;29;21024;-72
2022/06/03 13:55:31;;;;;;;2.37;2.37;;;22.50;90.70;;;;;;4952896;28;20515;-72
2022/06/03 13:58:02;;;;;;;2.43;2.43;;;22.50;91.20;;;;;;4956685;28;21012;-72
2022/06/03 14:00:36;;;;;;;1.90;1.90;;;22.40;90.90;;;;;;4954793;28;20472;-72
2022/06/03 14:03:13;;;;;;;2.20;2.10;;;22.50;91.60;;;;;;4941922;28;20772;-70
2022/06/03 14:05:43;;;;;;;2.37;2.13;;;22.60;91.10;;;;;;4948218;29;20492;-70
2022/06/03 14:08:19;;;;;;;2.53;2.47;;;22.50;91.30;;;;;;4951048;28;20469;-70
2022/06/03 14:10:49;;;;;;;2.20;2.20;;;22.60;91.10;;;;;;4939668;28;20480;-70
2022/06/03 14:13:24;;;;;;;4.40;2.07;;;22.60;91.80;;;;;;4952319;28;20489;-71
2022/06/03 14:15:57;;;;;;;2.33;2.23;;;22.60;91.20;;;;;;4947139;28;20506;-71
2022/06/03 14:18:47;;;;;;;2.80;2.70;;;22.80;90.70;;;;;;4944168;29;20842;-71
2022/06/03 14:21:17;;;;;;;3.00;2.50;;;22.70;91.60;;;;;;4950489;28;20480;-71
2022/06/03 14:23:46;;;;;;;2.20;2.20;;;22.80;92.00;;;;;;4942256;29;20992;-71
2022/06/03 14:26:19;;;;;;;2.30;2.20;;;23.00;91.50;;;;;;4941492;28;20493;-70
2022/06/03 14:28:51;;;;;;;2.60;2.50;;;23.20;91.00;;;;;;4942742;28;20477;-70
2022/06/03 14:31:28;;;;;;;2.47;2.37;;;23.40;90.70;;;;;;4953107;28;20485;-70
2022/06/03 14:33:59;;;;;;;2.10;2.10;;;23.30;90.10;;;;;;4950944;28;20489;-71
2022/06/03 14:36:27;;;;;;;2.03;2.03;;;23.30;90.60;;;;;;4952879;28;20475;-70
2022/06/03 14:39:01;;;;;;;2.63;2.53;;;23.40;90.30;;;;;;4952152;28;20477;-70
2022/06/03 14:41:30;;;;;;;2.57;2.47;;;23.70;91.10;;;;;;4953498;28;20468;-70
2022/06/03 14:43:59;;;;;;;2.13;2.03;;;24.00;90.60;;;;;;4949626;28;20476;-71
2022/06/03 14:46:32;;;;;;;3.83;2.60;;;24.00;89.70;;;;;;4951243;28;20480;-71
2022/06/03 14:49:08;;;;;;;2.40;2.30;;;23.90;90.60;;;;;;4946971;28;20473;-71
2022/06/03 14:51:40;;;;;;;2.90;2.80;;;23.80;90.30;;;;;;4950365;28;20515;-72
2022/06/03 14:54:12;;;;;;;2.33;2.30;;;23.40;90.10;;;;;;4952885;29;20492;-72
2022/06/03 14:56:44;;;;;;;2.57;2.57;;;23.00;90.90;;;;;;4951879;28;20472;-71
2022/06/03 14:59:23;;;;;;;2.40;2.30;;;22.80;91.20;;;;;;4950066;28;20996;-71
2022/06/03 15:01:52;;;;;;;3.03;2.80;;;22.50;91.50;;;;;;4942536;29;20479;-71
2022/06/03 15:04:30;;;;;;;2.50;2.40;;;22.30;91.60;;;;;;4951029;28;20828;-71
2022/06/03 15:07:01;;;;;;;2.40;2.40;;;22.10;91.70;;;;;;4949867;28;20461;-71
2022/06/03 15:09:36;;;;;;;2.20;2.20;;;21.90;91.90;;;;;;4952124;28;20468;-72
2022/06/03 15:12:06;;;;;;;2.33;2.33;;;22.20;92.20;;;;;;4950685;28;20479;-71
2022/06/03 15:14:37;;;;;;;2.70;2.70;;;22.50;92.10;;;;;;4951613;28;20505;-71
2022/06/03 15:17:06;;;;;;;2.77;2.67;;;22.70;91.30;;;;;;4944216;28;20473;-71
2022/06/03 15:19:41;;;;;;;2.63;2.53;;;22.80;91.20;;;;;;4950878;29;20472;-70
2022/06/03 15:22:13;;;;;;;2.50;2.50;;;22.80;91.40;;;;;;4951096;28;20551;-72
2022/06/03 15:24:48;;;;;;;2.23;2.13;;;23.00;91.80;;;;;;4949795;28;20493;-72
2022/06/03 15:27:16;;;;;;;1.90;1.90;;;23.10;90.80;;;;;;4951484;28;20811;-72
2022/06/03 15:29:42;;;;;;;2.53;2.53;;;22.90;90.80;;;;;;4939781;28;20469;-71
2022/06/03 15:32:10;;;;;;;2.60;2.43;;;22.90;91.00;;;;;;4953213;28;20476;-71
2022/06/03 15:34:37;;;;;;;3.10;3.10;;;23.00;91.20;;;;;;4949104;28;20496;-71
2022/06/03 15:37:05;;;;;;;2.90;2.80;;;23.10;90.90;;;;;;4949709;28;20514;-72
2022/06/03 15:39:37;;;;;;;2.20;2.20;;;23.20;92.00;;;;;;4949398;28;20488;-72
2022/06/03 15:42:10;;;;;;;2.23;2.23;;;23.20;90.30;;;;;;4951644;28;20472;-72
2022/06/03 15:44:39;;;;;;;1.97;1.97;;;23.30;90.80;;;;;;4953197;28;20488;-72
2022/06/03 15:47:16;;;;;;;2.63;2.53;;;23.30;90.70;;;;;;4944980;28;20474;-71
2022/06/03 15:49:50;;;;;;;2.30;2.20;;;23.40;90.30;;;;;;4942312;29;20479;-73
2022/06/03 15:52:18;;;;;;;2.20;2.20;;;23.40;90.30;;;;;;4950595;28;20566;-71
2022/06/03 15:54:55;;;;;;;2.47;2.33;;;23.30;90.20;;;;;;4944297;29;20481;-72
2022/06/03 15:57:39;;;;;;;2.30;2.30;;;23.40;90.40;;;;;;4950103;28;21018;-70
2022/06/03 16:00:11;;;;;;;2.43;2.30;;;23.40;89.70;;;;;;4951658;28;20259;-71
2022/06/03 16:02:53;;;;;;;2.13;1.90;;;23.50;89.30;;;;;;4952337;28;20469;-72
2022/06/03 16:05:23;;;;;;;3.20;2.93;;;23.50;89.70;;;;;;4951626;28;20605;-71
2022/06/03 16:08:01;;;;;;;2.30;2.30;;;23.40;88.60;;;;;;4948130;28;21028;-71
2022/06/03 16:10:33;;;;;;;2.57;2.57;;;23.20;89.20;;;;;;4946887;29;21038;-71
2022/06/03 16:13:26;;;;;;;2.20;2.00;;;23.10;89.40;;;;;;4951369;29;20503;-71
2022/06/03 16:16:03;;;;;;;2.63;2.50;;;23.30;90.10;;;;;;4945849;29;20504;-71
2022/06/03 16:18:53;;;;;;;2.27;2.27;;;23.40;89.40;;;;;;4949404;28;20835;-71
2022/06/03 16:21:39;;;;;;;1.80;1.80;;;23.50;89.40;;;;;;4949515;28;20478;-71
2022/06/03 16:24:18;;;;;;;2.20;2.20;;;23.50;88.50;;;;;;4944199;29;20475;-71
2022/06/03 16:26:49;;;;;;;2.10;2.10;;;23.30;87.40;;;;;;4945645;29;20575;-71
2022/06/03 16:29:27;;;;;;;2.27;2.03;;;23.00;88.50;;;;;;4947591;28;20810;-71
2022/06/03 16:32:09;;;;;;;2.10;2.10;;;23.00;89.00;;;;;;4938905;28;20476;-71
2022/06/03 16:34:49;;;;;;;3.43;2.60;;;23.10;89.60;;;;;;4943901;29;20493;-71
2022/06/03 16:37:26;;;;;;;2.50;2.40;;;23.10;89.80;;;;;;4949938;29;20467;-71
2022/06/03 16:40:00;;;;;;;2.40;2.30;;;23.10;88.70;;;;;;4948516;29;20476;-71
2022/06/03 16:42:37;;;;;;;2.20;2.20;;;23.20;88.70;;;;;;4953378;29;20493;-71
2022/06/03 16:47:56;;;;;;;2.43;2.30;;;23.30;89.20;;;;;;4952648;29;20961;-71
2022/06/03 16:50:28;;;;;;;2.47;2.40;;;23.20;87.50;;;;;;4952224;28;20472;-70
2022/06/03 16:52:57;;;;;;;2.40;2.20;;;23.20;88.60;;;;;;4945754;28;20484;-70
2022/06/03 16:55:27;;;;;;;2.30;2.30;;;23.10;88.80;;;;;;4958444;28;20870;-70
2022/06/03 16:57:57;;;;;;;2.40;2.40;;;23.10;88.90;;;;;;4942066;28;20470;-70
2022/06/03 17:00:26;;;;;;;2.80;2.70;;;23.10;88.20;;;;;;4953103;28;20980;-70
2022/06/03 17:02:57;;;;;;;3.70;2.20;;;23.00;87.50;;;;;;4953396;28;20476;-70
2022/06/03 17:05:25;;;;;;;2.57;2.47;;;22.80;87.80;;;;;;4953382;28;20481;-69
2022/06/03 17:07:53;;;;;;;2.17;2.17;;;22.70;87.50;;;;;;4953708;28;20467;-70
2022/06/03 17:10:26;;;;;;;2.30;2.30;;;22.60;89.10;;;;;;4944259;29;20521;-70
2022/06/03 17:12:55;;;;;;;3.70;2.27;;;22.70;89.50;;;;;;4946361;29;20484;-71
2022/06/03 17:15:22;;;;;;;2.17;2.17;;;22.80;89.30;;;;;;4945930;29;20988;-69
2022/06/03 17:17:51;;;;;;;2.17;2.17;;;22.90;88.70;;;;;;4947311;29;20469;-69
2022/06/03 17:20:38;;;;;;;2.20;2.20;;;22.80;87.80;;;;;;4950602;28;20465;-68
2022/06/03 17:23:30;;;;;;;2.13;2.03;;;22.60;87.00;;;;;;4949068;29;20489;-69
2022/06/03 17:26:01;;;;;;;2.57;2.50;;;22.60;87.90;;;;;;4948290;28;20489;-69
2022/06/03 17:28:56;;;;;;;2.53;2.53;;;22.60;88.10;;;;;;4950508;29;21138;-69
2022/06/03 17:31:34;;;;;;;2.40;2.30;;;22.60;87.80;;;;;;4953246;28;20495;-69
2022/06/03 17:34:14;;;;;;;2.40;2.33;;;22.60;88.10;;;;;;4950953;28;21020;-70
2022/06/03 17:36:53;;;;;;;2.30;2.20;;;22.50;87.80;;;;;;4947472;28;20953;-69
2022/06/03 17:39:32;;;;;;;2.33;2.27;;;22.40;87.70;;;;;;4942127;29;20464;-69
2022/06/03 17:42:07;;;;;;;2.30;2.30;;;22.30;88.30;;;;;;4953055;28;20475;-70
2022/06/03 17:44:48;;;;;;;2.03;1.93;;;22.20;88.20;;;;;;4935403;28;20568;-70
2022/06/03 17:47:21;;;;;;;1.70;1.60;;;22.20;88.30;;;;;;4952903;28;20487;-69
2022/06/03 17:49:56;;;;;;;2.10;2.00;;;22.00;88.60;;;;;;4947991;28;20472;-69
2022/06/03 17:55:25;;;;;;;1.80;1.70;;;21.90;89.60;;;;;;4949150;28;20488;-70
2022/06/03 17:58:10;;;;;;;1.70;1.70;;;21.90;88.50;;;;;;4951015;29;20473;-68
2022/06/03 18:00:42;;;;;;;1.67;1.67;;;21.80;89.00;;;;;;4951400;29;20556;-68
2022/06/03 18:03:53;;;;;;;2.30;1.97;;;21.70;90.10;;;;;;4952744;28;20465;-68
2022/06/03 18:06:29;;;;;;;1.77;1.77;;;21.70;90.60;;;;;;4948791;28;20487;-68
2022/06/03 18:09:18;;;;;;;1.67;1.57;;;21.50;90.40;;;;;;4946484;28;20535;-69
2022/06/03 18:11:46;;;;;;;2.03;2.00;;;21.50;90.70;;;;;;4951013;28;20479;-68
2022/06/03 18:14:19;;;;;;;1.73;1.73;;;21.40;90.90;;;;;;4952378;28;20485;-69
2022/06/03 18:16:59;;;;;;;1.50;1.50;;;21.40;90.90;;;;;;4946824;29;21000;-69
2022/06/03 18:19:27;;;;;;;1.83;1.83;;;21.30;91.00;;;;;;4944836;28;20468;-69
2022/06/03 18:22:14;;;;;;;2.03;1.77;;;21.20;90.80;;;;;;4941558;29;20462;-69
2022/06/03 18:25:14;;;;;;;2.10;2.00;;;21.10;91.10;;;;;;4943821;28;20492;-69
2022/06/03 18:27:58;;;;;;;1.97;1.97;;;21.10;91.30;;;;;;4941251;28;20531;-68